Station: Camooweal  

  Atmospheric Gas Attenuation - ITU Rec 676-11   ----------------- dB/100km -----------------
Date Time Temp RH % AH g/m3 Dew Point Wind Direction Speed kph Gust kph Barometer mB Rainfall Since 9am 24GHz 47GHz 76GHz 122GHz 134GHz 241GHz
08/05 12:30 24.9 30 6.87 6.1 26 39 1017.9 0 15.5 20.7 29.1 75.9 66.7 228.7
08/05 12:20 24.4 32 7.12 6.6 28 33 1018.2 0 16.0 21.2 30.1 78.6 69.9 239.6
08/05 12:10 24.2 31 6.82 6 28 32 1018.6 0 15.4 20.8 29.2 76.1 66.8 228.8
08/05 12:00 24.2 31 6.82 6 26 41 1018.4 0 15.4 20.8 29.2 76.1 66.8 228.8
08/05 11:50 24.3 31 6.86 6.1 28 35 1018.7 0 15.5 20.9 29.3 76.4 67.1 230.1
08/05 11:40 23.6 31 6.59 5.5 30 33 1018.9 0 14.9 20.7 28.6 74.7 64.8 221.8
08/05 11:30 23.2 32 6.65 5.6 28 35 1018.9 0 15.1 20.8 29.0 75.6 65.8 225.2
08/05 11:20 22.8 32 6.5 5.3 30 35 1019.2 0 14.8 20.7 28.6 74.7 64.5 220.6
08/05 11:10 23.1 33 6.82 6 30 35 1019.3 0 15.4 21.1 29.6 77.2 67.7 232.0
08/05 11:00 21.6 35 6.64 5.5 22 32 1019.4 0 15.1 21.2 29.5 77.0 67.0 229.3
08/05 10:50 20.9 36 6.56 5.3 26 32 1019.6 0 15.0 21.2 29.5 77.0 66.7 228.1
08/05 10:40 20.6 35 6.26 4.6 26 30 1019.5 0 14.4 20.9 28.6 74.5 63.6 217.2
08/05 10:30 21.8 35 6.71 5.7 30 39 1019.6 0 15.3 21.2 29.7 77.5 67.6 231.5
08/05 10:20 22.1 35 6.83 5.9 24 32 1019.6 0 15.5 21.3 30.0 78.3 68.7 235.3
08/05 10:10 22.2 35 6.87 6 22 30 1019.7 0 15.6 21.4 30.1 78.5 69.1 236.6
08/05 10:00 21.4 36 6.75 5.7 26 37 1019.6 0 15.4 21.4 30.0 78.2 68.4 234.2
08/05 09:50 19.6 39 6.58 5.3 28 37 1019.7 0 15.1 21.6 30.0 78.4 68.0 232.6
08/05 09:40 18.9 39 6.32 4.7 30 39 1019.6 0 14.5 21.4 29.4 76.6 65.6 224.1
08/05 09:30 19.1 38 6.23 4.5 24 37 1019.5 0 14.3 21.2 29.0 75.6 64.4 220.0
08/05 09:20 18.6 41 6.52 5.1 19 24 1019.5 0 15.0 21.7 30.2 78.8 68.2 233.0
08/05 09:10 17.9 44 6.72 5.5 15 17 1019.5 0 15.4 22.2 31.2 81.3 71.1 243.2
08/05 09:00 17.3 44 6.48 4.9 22 32 1019.3 0 14.9 22.0 30.5 79.6 68.8 235.0
08/05 08:50 17.2 45 6.59 5.2 20 24 1019.3 0 15.2 22.1 31.0 80.8 70.2 239.9
08/05 08:40 17 46 6.66 5.3 17 20 1019.3 0 15.3 22.3 31.3 81.7 71.2 243.3
08/05 08:30 17 45 6.51 5 24 33 1019.1 0 15.0 22.1 30.7 80.2 69.4 237.1
08/05 08:20 16.7 46 6.54 5 24 28 1019.1 0 15.1 22.2 31.0 80.8 70.0 239.2
08/05 08:10 16.4 47 6.56 5.1 20 26 1019.1 0 15.1 22.3 31.1 81.3 70.5 240.9
08/05 08:00 16.4 47 6.56 5.1 22 32 1019 0 15.1 22.3 31.1 81.3 70.5 240.9
08/05 07:50 16.1 48 6.58 5.1 17 20 1019 0 15.2 22.4 31.3 81.8 71.0 242.7
08/05 07:40 15.9 49 6.64 5.2 20 24 1018.9 0 15.3 22.5 31.6 82.5 71.9 245.8
08/05 07:30 15.9 49 6.64 5.2 20 30 1018.8 0 15.3 22.5 31.6 82.5 71.9 245.7
08/05 07:20 15.7 49 6.56 5 19 24 1018.7 0 15.2 22.4 31.4 82.0 71.1 243.0
08/05 07:10 15.6 50 6.65 5.2 22 28 1018.7 0 15.4 22.6 31.8 82.9 72.3 247.0
08/05 07:00 15.4 51 6.7 5.3 19 26 1018.5 0 15.5 22.7 32.0 83.6 73.0 249.7
08/05 06:50 15.2 52 6.75 5.4 19 20 1018.5 0 15.6 22.8 32.3 84.3 73.8 252.5
08/05 06:40 14.8 53 6.71 5.3 17 20 1018.5 0 15.5 22.9 32.3 84.3 73.7 252.0
08/05 06:30 14.5 53 6.59 5 17 22 1018.4 0 15.3 22.8 32.0 83.5 72.5 247.8
08/05 06:20 14.4 54 6.68 5.2 17 20 1018.4 0 15.5 22.9 32.3 84.4 73.7 252.0
08/05 06:10 14.3 54 6.63 5.1 15 19 1018.3 0 15.4 22.9 32.2 84.0 73.2 250.1
08/05 06:00 14 55 6.63 5.1 15 19 1018.2 0 15.4 22.9 32.3 84.4 73.5 251.0
08/05 05:50 14.6 53 6.63 5.1 13 15 1018.3 0 15.4 22.8 32.1 83.7 72.9 249.2
08/05 05:40 14.9 52 6.63 5.1 15 17 1018.2 0 15.3 22.7 31.9 83.4 72.6 248.2
08/05 05:30 15 51 6.54 5 17 22 1018 0 15.2 22.6 31.6 82.4 71.4 244.1
08/05 05:20 15.2 51 6.62 5.1 17 20 1017.9 0 15.3 22.6 31.8 83.0 72.2 246.8
08/05 05:10 15.3 50 6.53 4.9 17 19 1017.8 0 15.1 22.5 31.4 82.0 71.0 242.7
08/05 05:00 15.5 50 6.61 5.1 17 24 1017.8 0 15.3 22.5 31.6 82.6 71.8 245.5
08/05 04:50 15.8 49 6.6 5.1 17 20 1017.7 0 15.3 22.4 31.5 82.2 71.4 244.1
08/05 04:40 15.9 48 6.5 4.9 20 26 1017.4 0 15.0 22.3 31.1 81.1 70.1 239.6
08/05 04:30 15.9 48 6.5 4.9 19 28 1017.5 0 15.0 22.3 31.1 81.1 70.1 239.6
08/05 04:20 15.9 48 6.5 4.9 20 24 1017.5 0 15.0 22.3 31.1 81.1 70.1 239.6
08/05 04:10 16 48 6.54 5 20 24 1017.8 0 15.1 22.3 31.2 81.4 70.5 241.0
08/05 04:00 16.1 48 6.58 5.1 19 28 1017.7 0 15.2 22.3 31.3 81.7 70.9 242.4
08/05 03:50 16.3 47 6.52 5 19 22 1017.9 0 15.1 22.2 31.0 80.9 70.0 239.3
08/05 03:40 16.5 46 6.46 4.9 19 24 1018.1 0 14.9 22.1 30.7 80.1 69.2 236.3
08/05 03:30 16.5 46 6.46 4.9 17 24 1017.9 0 14.9 22.1 30.7 80.1 69.2 236.3
08/05 03:20 16.7 46 6.54 5 19 22 1018 0 15.1 22.1 30.9 80.7 69.9 239.0
08/05 03:10 16.5 47 6.6 5.2 15 17 1018 0 15.2 22.3 31.2 81.5 70.8 242.1
08/05 03:00 16.7 46 6.54 5 17 24 1018 0 15.1 22.1 30.9 80.7 69.9 239.0
08/05 02:50 16.8 46 6.58 5.1 20 22 1018 0 15.2 22.2 31.0 81.0 70.3 240.4
08/05 02:40 17 46 6.66 5.3 17 19 1017.9 0 15.3 22.2 31.2 81.5 71.1 243.1
08/05 02:30 17 46 6.66 5.3 17 24 1017.7 0 15.3 22.2 31.2 81.5 71.1 243.0
08/05 02:20 17.3 45 6.63 5.3 19 20 1017.8 0 15.3 22.1 31.0 80.9 70.4 240.9
08/05 02:10 17.3 46 6.78 5.6 15 17 1017.7 0 15.6 22.3 31.5 82.4 72.2 247.1
08/05 02:00 17.3 46 6.78 5.6 15 22 1017.7 0 15.6 22.3 31.5 82.4 72.2 247.1
08/05 01:50 17.4 47 6.96 6 15 17 1017.8 0 15.9 22.6 32.1 84.0 74.3 254.3
08/05 01:40 17.3 47 6.92 5.9 19 20 1018 0 15.9 22.5 32.1 83.7 73.9 253.0
08/05 01:30 17.2 48 7.03 6.1 17 24 1018 0 16.1 22.7 32.5 84.9 75.3 257.9
08/05 01:20 17.7 46 6.94 5.9 17 20 1018.1 0 15.9 22.5 32.0 83.5 73.8 252.6
08/05 01:10 18.1 45 6.95 6 17 20 1018.3 0 15.9 22.4 31.9 83.2 73.5 251.8
08/05 01:00 18.4 44 6.92 5.9 17 24 1018.2 0 15.8 22.3 31.6 82.6 72.9 249.6
08/05 00:50 18.6 44 7 6.1 19 22 1018.4 0 16.0 22.4 31.8 83.2 73.7 252.3
08/05 00:40 18.8 43 6.92 6 19 22 1018.4 0 15.8 22.2 31.5 82.2 72.5 248.4
08/05 00:30 19 43 7.01 6.2 20 26 1018.4 0 16.0 22.3 31.7 82.9 73.4 251.5
08/05 00:20 19 43 7.01 6.1 20 22 1018.6 0 16.0 22.3 31.7 82.9 73.4 251.5
08/05 00:10 18.9 43 6.97 6.1 22 24 1018.3 0 15.9 22.2 31.6 82.6 73.0 250.1
08/05 00:00 19.3 42 6.97 6.1 20 28 1018.2 0 15.9 22.1 31.5 82.2 72.7 248.9
07/05 23:50 19.3 42 6.97 6.1 19 24 1018.2 0 15.9 22.1 31.5 82.2 72.7 248.9
07/05 23:40 19.7 41 6.96 6.1 24 32 1018.3 0 15.9 22.0 31.3 81.7 72.2 247.3
07/05 23:30 19.9 41 7.04 6.3 22 32 1018.1 0 16.0 22.1 31.5 82.2 72.9 249.9
07/05 23:20 20 41 7.08 6.4 20 24 1018.3 0 16.1 22.1 31.6 82.5 73.3 251.2
07/05 23:10 20 41 7.08 6.4 20 26 1018.2 0 16.1 22.1 31.6 82.5 73.3 251.2
07/05 23:00 20.2 40 6.99 6.2 22 32 1018.1 0 15.9 22.0 31.2 81.5 72.1 246.9
07/05 22:50 20.3 41 7.21 6.6 20 24 1018.2 0 16.4 22.2 31.9 83.4 74.5 255.5
07/05 22:40 20.5 40 7.12 6.4 24 30 1018.2 0 16.2 22.1 31.5 82.4 73.3 251.3
07/05 22:30 20.5 40 7.12 6.5 24 33 1018.2 0 16.2 22.1 31.5 82.4 73.3 251.3
07/05 22:20 20.5 41 7.29 6.8 24 30 1018.3 0 16.5 22.3 32.1 84.0 75.3 258.2
07/05 22:10 20.5 41 7.29 6.8 24 28 1018.4 0 16.5 22.3 32.1 84.0 75.3 258.2
07/05 22:00 20.3 41 7.21 6.6 19 26 1018.3 0 16.4 22.2 31.9 83.4 74.5 255.5
07/05 21:50 20.2 41 7.17 6.5 17 19 1018.4 0 16.3 22.2 31.8 83.2 74.2 254.3
07/05 21:40 20.9 40 7.28 6.8 19 22 1018.3 0 16.5 22.2 31.9 83.5 74.8 256.5
07/05 21:30 21.3 39 7.27 6.8 20 32 1018.1 0 16.4 22.1 31.7 82.9 74.3 254.8
07/05 21:20 21.3 40 7.46 7.2 20 24 1018.2 0 16.8 22.4 32.4 84.7 76.4 262.4
07/05 21:10 20.8 43 7.79 7.8 15 17 1018.1 0 17.6 22.9 33.8 88.3 80.8 277.5
07/05 21:00 21.4 41 7.69 7.6 17 24 1017.9 0 17.3 22.6 33.2 86.7 79.0 271.4
07/05 20:50 22 40 7.76 7.8 19 22 1017.8 0 17.4 22.6 33.1 86.7 79.2 272.2
07/05 20:40 22.4 39 7.74 7.8 17 20 1017.8 0 17.4 22.5 32.9 86.1 78.6 270.0
07/05 20:30 22.6 39 7.83 8 20 28 1017.6 0 17.6 22.5 33.1 86.7 79.4 272.9
07/05 20:20 22.8 39 7.92 8.1 22 28 1017.5 0 17.7 22.6 33.4 87.4 80.2 275.8
07/05 20:10 22.9 39 7.97 8.2 19 22 1017.5 0 17.8 22.7 33.5 87.7 80.7 277.5
07/05 20:00 23.3 38 7.94 8.2 22 33 1017.4 0 17.8 22.5 33.2 87.0 79.9 274.9

Last Refresh: 08-May-2026 12:08:01

Bureau of Meteorology